createdAt,value
2024-02-08T00:01:11.511Z,87.65
2024-02-08T00:03:38.982Z,87.76
2024-02-08T00:06:06.164Z,87.55
2024-02-08T00:08:36.131Z,87.93
2024-02-08T00:11:07.640Z,88.19
2024-02-08T00:13:35.626Z,88.10
2024-02-08T00:16:02.903Z,88.02
2024-02-08T00:18:29.896Z,87.89
2024-02-08T00:20:57.212Z,87.93
2024-02-08T00:23:24.197Z,88.04
2024-02-08T00:25:51.646Z,88.07
2024-02-08T00:28:18.693Z,87.75
2024-02-08T00:30:46.536Z,87.72
2024-02-08T00:33:13.548Z,87.82
2024-02-08T00:35:40.778Z,87.73
2024-02-08T00:38:08.213Z,88.09
2024-02-08T00:40:35.081Z,88.12
2024-02-08T00:43:07.666Z,88.13
2024-02-08T00:45:35.312Z,88.10
2024-02-08T00:48:05.240Z,88.04
2024-02-08T00:50:32.118Z,88.15
2024-02-08T00:52:59.668Z,88.25
2024-02-08T00:55:30.979Z,88.01
2024-02-08T00:57:57.976Z,88.21
2024-02-08T01:00:24.832Z,88.29
2024-02-08T01:02:51.605Z,88.12
2024-02-08T01:05:21.945Z,87.97
2024-02-08T01:07:48.735Z,87.90
2024-02-08T01:10:15.679Z,88.26
2024-02-08T01:12:44.058Z,88.34
2024-02-08T01:15:15.317Z,88.01
2024-02-08T01:17:43.072Z,88.04
2024-02-08T01:20:11.345Z,87.83
2024-02-08T01:22:38.280Z,88.38
2024-02-08T01:25:05.621Z,88.26
2024-02-08T01:27:32.765Z,88.42
2024-02-08T01:30:08.168Z,87.92
2024-02-08T01:32:35.126Z,88.35
2024-02-08T01:35:01.862Z,87.99
2024-02-08T01:37:29.332Z,87.95
2024-02-08T01:39:57.668Z,88.03
2024-02-08T01:42:24.518Z,88.15
2024-02-08T01:45:02.517Z,87.90
2024-02-08T01:47:29.365Z,88.07
2024-02-08T01:49:56.877Z,88.22
2024-02-08T01:52:24.662Z,88.33
2024-02-08T01:54:51.587Z,88.11
2024-02-08T01:57:18.660Z,87.96
2024-02-08T02:00:22.918Z,88.41
2024-02-08T02:06:37.997Z,88.43
2024-02-08T02:10:24.259Z,88.03
2024-02-08T02:13:50.725Z,88.10
2024-02-08T02:17:29.306Z,88.29
2024-02-08T02:21:16.301Z,87.80
2024-02-08T02:25:02.512Z,87.68
2024-02-08T02:28:50.267Z,88.07
2024-02-08T02:32:36.922Z,87.83
2024-02-08T02:36:23.416Z,88.20
2024-02-08T02:40:09.856Z,88.19
2024-02-08T02:43:59.229Z,88.28
2024-02-08T02:47:47.666Z,88.26
2024-02-08T02:51:34.579Z,88.17
2024-02-08T02:55:21.315Z,88.11
2024-02-08T02:59:08.346Z,88.40
2024-02-08T03:02:55.214Z,88.13
2024-02-08T03:06:43.003Z,87.99
2024-02-08T03:14:15.124Z,87.84
2024-02-08T03:18:02.319Z,87.98
2024-02-08T03:21:49.225Z,88.62
2024-02-08T03:25:38.948Z,87.91
2024-02-08T03:29:05.732Z,88.38
2024-02-08T03:32:53.690Z,88.62
2024-02-08T03:36:40.622Z,88.38
2024-02-08T03:40:27.821Z,88.03
2024-02-08T03:43:54.754Z,87.82
2024-02-08T03:47:41.097Z,87.43
2024-02-08T03:51:27.498Z,87.78
2024-02-08T03:55:14.820Z,87.48
2024-02-08T03:59:06.431Z,87.87
2024-02-08T04:02:58.990Z,87.12
2024-02-08T04:05:47.917Z,87.67
2024-02-08T04:08:33.622Z,87.91
2024-02-08T04:11:00.304Z,87.46
2024-02-08T04:13:45.723Z,86.87
2024-02-08T04:16:31.075Z,87.09
2024-02-08T04:19:17.852Z,87.23
2024-02-08T04:22:03.184Z,87.00
2024-02-08T04:24:48.196Z,86.97
2024-02-08T04:27:32.886Z,87.09
2024-02-08T04:30:17.744Z,87.22
2024-02-08T04:33:06.181Z,87.15
2024-02-08T04:35:51.177Z,86.91
2024-02-08T04:38:36.079Z,86.64
2024-02-08T04:41:21.941Z,86.60
2024-02-08T04:44:07.653Z,86.73
2024-02-08T04:46:52.994Z,86.84
2024-02-08T04:49:37.731Z,86.51
2024-02-08T04:52:23.097Z,86.67
2024-02-08T04:54:49.675Z,86.59
2024-02-08T04:57:16.294Z,86.52
2024-02-08T04:59:45.500Z,86.49
2024-02-08T05:02:12.743Z,86.59
2024-02-08T05:04:39.236Z,86.49
2024-02-08T05:07:07.295Z,86.73
2024-02-08T05:09:34.101Z,86.75
2024-02-08T05:12:03.110Z,86.54
2024-02-08T05:14:29.672Z,86.78
2024-02-08T05:16:56.775Z,86.79
2024-02-08T05:19:24.535Z,86.78
2024-02-08T05:21:51.787Z,86.85
2024-02-08T05:25:24.502Z,86.65
2024-02-08T05:29:08.584Z,86.75
2024-02-08T05:32:59.376Z,86.57
2024-02-08T05:36:49.055Z,86.28
2024-02-08T05:40:15.674Z,86.46
2024-02-08T05:44:02.700Z,86.92
2024-02-08T05:47:52.490Z,86.76
2024-02-08T05:51:18.889Z,86.20
2024-02-08T06:11:07.319Z,86.64
2024-02-08T06:14:54.596Z,86.33
2024-02-08T06:18:47.336Z,86.50
2024-02-08T06:22:42.954Z,86.84
2024-02-08T06:26:33.984Z,86.42
2024-02-08T06:34:06.753Z,85.90
2024-02-08T06:37:56.298Z,86.12
2024-02-08T06:41:47.392Z,86.28
2024-02-08T06:45:47.222Z,86.41
2024-02-08T06:49:32.459Z,86.36
2024-02-08T06:53:20.673Z,86.53
2024-02-08T06:57:06.781Z,86.32
2024-02-08T07:00:54.766Z,86.67
2024-02-08T07:04:39.892Z,86.56
2024-02-08T07:08:25.476Z,86.73
2024-02-08T07:12:10.595Z,86.25
2024-02-08T07:15:55.760Z,86.57
2024-02-08T07:19:40.646Z,86.58
2024-02-08T07:23:26.105Z,86.38
2024-02-08T07:27:17.598Z,86.43
2024-02-08T07:31:04.423Z,86.52
2024-02-08T07:34:50.080Z,86.26
2024-02-08T07:38:39.970Z,86.47
2024-02-08T07:42:28.761Z,86.56
2024-02-08T07:46:39.240Z,86.97
2024-02-08T07:50:31.920Z,87.09
2024-02-08T07:54:30.917Z,86.55
2024-02-08T07:58:21.680Z,86.47
2024-02-08T08:02:19.290Z,86.32
2024-02-08T08:06:06.594Z,86.24
2024-02-08T08:09:56.864Z,85.58
2024-02-08T08:13:45.752Z,85.54
2024-02-08T08:17:38.450Z,85.29
2024-02-08T08:21:25.565Z,85.44
2024-02-08T08:25:21.951Z,85.51
2024-02-08T08:29:16.841Z,85.31
2024-02-08T08:33:03.824Z,85.59
2024-02-08T08:36:50.969Z,85.51
2024-02-08T08:40:46.996Z,85.64
2024-02-08T08:48:23.759Z,84.81
2024-02-08T08:52:12.144Z,85.05
2024-02-08T08:55:59.743Z,84.38
2024-02-08T08:59:47.305Z,83.74
2024-02-08T09:03:52.753Z,84.40
2024-02-08T09:07:42.514Z,83.96
2024-02-08T09:11:36.316Z,84.28
2024-02-08T09:15:44.890Z,84.24
2024-02-08T09:19:35.098Z,84.16
2024-02-08T09:23:29.045Z,83.89
2024-02-08T09:27:16.892Z,83.22
2024-02-08T09:31:04.161Z,83.58
2024-02-08T09:35:01.381Z,83.81
2024-02-08T09:38:48.396Z,83.70
2024-02-08T09:46:42.958Z,83.85
2024-02-08T09:50:34.370Z,83.39
2024-02-08T09:54:36.446Z,83.41
2024-02-08T10:02:29.568Z,83.27
2024-02-08T10:06:16.484Z,83.61
2024-02-08T10:10:03.834Z,83.72
2024-02-08T10:13:58.557Z,83.19
2024-02-08T10:21:21.291Z,82.88
2024-02-08T10:25:06.589Z,83.42
2024-02-08T10:29:01.038Z,83.79
2024-02-08T10:32:49.442Z,83.72
2024-02-08T10:36:42.387Z,83.56
2024-02-08T10:40:50.944Z,83.54
2024-02-08T10:44:46.038Z,83.47
2024-02-08T10:48:46.873Z,83.88
2024-02-08T10:52:35.707Z,83.80
2024-02-08T10:56:23.538Z,83.62
2024-02-08T11:00:11.898Z,83.31
2024-02-08T11:04:10.974Z,83.72
2024-02-08T11:07:58.176Z,83.42
2024-02-08T11:11:48.288Z,83.33
2024-02-08T11:15:35.689Z,82.75
2024-02-08T11:19:23.387Z,83.16
2024-02-08T11:23:13.226Z,82.58
2024-02-08T11:27:10.216Z,83.13
2024-02-08T11:30:59.940Z,82.82
2024-02-08T11:38:19.012Z,81.61
2024-02-08T11:42:09.475Z,82.31
2024-02-08T11:45:59.742Z,82.56
2024-02-08T11:49:54.682Z,82.14
2024-02-08T11:53:46.799Z,82.19
2024-02-08T11:57:36.178Z,82.20
2024-02-08T12:01:36.329Z,82.03
2024-02-08T12:05:26.806Z,82.43
2024-02-08T12:09:38.306Z,82.06
2024-02-08T12:13:38.024Z,81.49
2024-02-08T12:17:28.492Z,81.22
2024-02-08T12:25:06.693Z,81.89
2024-02-08T12:29:00.597Z,82.32
2024-02-08T12:32:52.693Z,81.93
2024-02-08T12:36:51.408Z,81.81
2024-02-08T12:40:40.777Z,81.53
2024-02-08T12:44:30.766Z,81.42
2024-02-08T12:48:24.361Z,81.45
2024-02-08T12:56:20.863Z,80.85
2024-02-08T13:00:15.675Z,81.64
2024-02-08T13:04:09.049Z,81.76
2024-02-08T13:14:57.438Z,81.73
2024-02-08T13:18:45.892Z,82.01
2024-02-08T13:22:35.208Z,82.29
2024-02-08T13:26:36.866Z,82.19
2024-02-08T13:30:24.690Z,82.56
2024-02-08T13:34:12.364Z,82.61
2024-02-08T13:37:59.690Z,82.68
2024-02-08T13:41:47.643Z,82.59
2024-02-08T13:45:38.803Z,82.55
2024-02-08T13:53:13.320Z,82.34
2024-02-08T13:57:03.692Z,82.84
2024-02-08T14:00:56.963Z,83.18
2024-02-08T14:04:52.947Z,83.22
2024-02-08T14:08:42.073Z,82.91
2024-02-08T14:12:32.404Z,83.06
2024-02-08T14:16:19.742Z,83.16
2024-02-08T14:20:08.511Z,83.33
2024-02-08T14:23:58.036Z,83.40
2024-02-08T14:27:43.669Z,83.52
2024-02-08T14:31:33.913Z,83.27
2024-02-08T14:35:19.413Z,83.79
2024-02-08T14:39:07.594Z,83.76
2024-02-08T14:42:57.636Z,83.52
2024-02-08T14:46:44.742Z,83.62
2024-02-08T14:50:37.405Z,83.73
2024-02-08T14:54:25.577Z,83.72
2024-02-08T14:58:12.702Z,83.85
2024-02-08T15:01:59.658Z,84.06
2024-02-08T15:05:46.839Z,83.88
2024-02-08T15:09:32.385Z,84.09
2024-02-08T15:13:22.324Z,83.92
2024-02-08T15:17:10.447Z,83.97
2024-02-08T15:20:58.176Z,83.75
2024-02-08T15:24:44.831Z,83.91
2024-02-08T15:28:47.892Z,84.06
2024-02-08T15:32:40.585Z,84.36
2024-02-08T15:40:15.615Z,84.30
2024-02-08T15:44:05.437Z,84.76
2024-02-08T15:47:52.828Z,84.59
2024-02-08T15:51:39.905Z,84.60
2024-02-08T15:55:27.416Z,84.20
2024-02-08T16:03:08.883Z,84.54
2024-02-08T16:07:02.317Z,84.87
2024-02-08T16:10:52.180Z,84.88
2024-02-08T16:14:39.467Z,84.71
2024-02-08T16:18:27.613Z,84.79
2024-02-08T16:22:13.946Z,84.76
2024-02-08T16:26:07.245Z,84.90
2024-02-08T16:29:57.137Z,85.14
2024-02-08T16:33:52.783Z,85.19
2024-02-08T16:37:51.773Z,85.28
2024-02-08T16:41:39.411Z,85.64
2024-02-08T16:45:26.701Z,85.71
2024-02-08T16:49:16.693Z,85.57
2024-02-08T16:53:04.018Z,85.46
2024-02-08T16:56:51.115Z,85.63
2024-02-08T17:00:50.310Z,85.93
2024-02-08T17:04:37.049Z,85.68
2024-02-08T17:08:24.041Z,85.98
2024-02-08T17:12:10.692Z,85.75
2024-02-08T17:16:01.417Z,85.64
2024-02-08T17:19:51.074Z,85.83
2024-02-08T17:23:38.156Z,86.05
2024-02-08T17:27:24.907Z,85.90
2024-02-08T17:31:21.114Z,85.93
2024-02-08T17:35:08.351Z,86.07
2024-02-08T17:38:55.052Z,86.34
2024-02-08T17:42:42.207Z,86.00
2024-02-08T17:46:30.717Z,86.06
2024-02-08T17:50:20.583Z,86.33
2024-02-08T17:54:08.075Z,86.39
2024-02-08T17:57:55.296Z,86.71
2024-02-08T18:01:42.374Z,86.77
2024-02-08T18:05:32.571Z,86.42
2024-02-08T18:09:21.263Z,86.50
2024-02-08T18:13:08.598Z,86.65
2024-02-08T18:16:58.909Z,86.77
2024-02-08T18:20:49.035Z,87.00
2024-02-08T18:24:38.571Z,86.70
2024-02-08T18:28:28.599Z,86.93
2024-02-08T18:32:15.959Z,86.76
2024-02-08T18:36:03.175Z,86.85
2024-02-08T18:39:52.915Z,87.01
2024-02-08T18:43:39.998Z,87.06
2024-02-08T18:47:26.956Z,86.98
2024-02-08T18:51:13.838Z,87.13
2024-02-08T18:55:00.966Z,87.05
2024-02-08T18:58:50.876Z,87.17
2024-02-08T19:02:48.296Z,87.17
2024-02-08T19:06:38.369Z,87.09
2024-02-08T19:10:31.145Z,86.85
2024-02-08T19:14:18.565Z,87.19
2024-02-08T19:18:07.971Z,87.21
2024-02-08T19:22:10.224Z,87.46
2024-02-08T19:25:57.322Z,87.41
2024-02-08T19:29:45.638Z,87.40
2024-02-08T19:33:32.400Z,87.17
2024-02-08T19:37:22.392Z,87.51
2024-02-08T19:41:09.558Z,87.46
2024-02-08T19:45:00.437Z,87.63
2024-02-08T19:48:48.513Z,87.69
2024-02-08T19:52:36.965Z,87.52
2024-02-08T19:56:26.615Z,87.50
2024-02-08T19:59:58.895Z,87.39
2024-02-08T20:03:46.270Z,87.62
2024-02-08T20:07:34.636Z,87.34
2024-02-08T20:11:21.819Z,87.65
2024-02-08T20:15:09.250Z,87.88
2024-02-08T20:18:57.846Z,87.79
2024-02-08T20:22:45.131Z,87.62
2024-02-08T20:26:33.396Z,87.79
2024-02-08T20:30:20.775Z,87.71
2024-02-08T20:34:11.250Z,87.70
2024-02-08T20:37:58.416Z,87.82
2024-02-08T20:41:46.999Z,87.56
2024-02-08T20:45:34.313Z,87.52
2024-02-08T20:49:24.070Z,87.70
2024-02-08T20:52:51.395Z,87.76
2024-02-08T20:56:44.278Z,87.74
2024-02-08T21:00:36.936Z,87.65
2024-02-08T21:04:24.244Z,87.67
2024-02-08T21:08:12.640Z,87.76
2024-02-08T21:12:11.968Z,87.86
2024-02-08T21:16:01.794Z,87.65
2024-02-08T21:23:18.984Z,87.77
2024-02-08T21:34:07.914Z,88.09
2024-02-08T21:51:55.999Z,88.49
2024-02-08T21:55:46.669Z,88.48
2024-02-08T22:02:11.378Z,88.26
2024-02-08T22:06:06.500Z,88.42
2024-02-08T22:09:57.551Z,88.39
2024-02-08T22:13:46.054Z,88.41
2024-02-08T22:24:26.619Z,88.70
2024-02-08T22:39:08.050Z,88.70
2024-02-08T22:43:02.135Z,88.84
2024-02-08T22:46:49.420Z,89.02
2024-02-08T22:50:48.980Z,89.00
2024-02-08T23:02:47.671Z,88.48
2024-02-08T23:07:02.909Z,88.57
